BLY1148 EGGP-EGHQ
Flight info
| Callsign | BLY1148 |
|---|---|
| Flight time | 0h 49m |
| Altitude | 19000 |
| Route | REXAM DCT OGTAW N862 PACSE/N0332F180 N92 EXMOR |
| Aircraft | A20N/M-SDE2E3FGHIRWXY/LB1 |
Departure
| Time | 2026-04-26 20:29 |
|---|---|
| Airport | Liverpool John Lennon Airport (EGGP) |
Arrival
| Time | 2026-04-26 21:19 |
|---|---|
| Airport | Cornwall Airport Newquay (EGHQ) |
| Time | Latitude | Longitude | Altitude | Speed | Heading |
|---|---|---|---|---|---|
| 2026-04-26 20:08 | 53.33659 | -2.85654 | 85 ft | 0 kts | 356° |
| 2026-04-26 20:17 | 53.33653 | -2.85654 | 88 ft | 1 kts | 356° |
| 2026-04-26 20:17 | 53.33646 | -2.85653 | 87 ft | 1 kts | 356° |
| 2026-04-26 20:17 | 53.33638 | -2.85652 | 85 ft | 1 kts | 356° |
| 2026-04-26 20:17 | 53.33633 | -2.85651 | 85 ft | 1 kts | 356° |
| 2026-04-26 20:18 | 53.33623 | -2.85649 | 85 ft | 1 kts | 337° |
| 2026-04-26 20:18 | 53.33616 | -2.85644 | 85 ft | 1 kts | 322° |
| 2026-04-26 20:18 | 53.33610 | -2.85635 | 86 ft | 1 kts | 304° |
| 2026-04-26 20:18 | 53.33606 | -2.85624 | 90 ft | 1 kts | 286° |
| 2026-04-26 20:19 | 53.33604 | -2.85612 | 90 ft | 1 kts | 267° |
| 2026-04-26 20:22 | 53.33604 | -2.85634 | 89 ft | 6 kts | 270° |
| 2026-04-26 20:22 | 53.33601 | -2.85734 | 86 ft | 11 kts | 265° |
| 2026-04-26 20:23 | 53.33594 | -2.85871 | 88 ft | 13 kts | 266° |
| 2026-04-26 20:23 | 53.33591 | -2.86031 | 88 ft | 14 kts | 269° |
| 2026-04-26 20:23 | 53.33583 | -2.86203 | 87 ft | 16 kts | 264° |
| 2026-04-26 20:23 | 53.33528 | -2.86314 | 86 ft | 13 kts | 197° |
| 2026-04-26 20:24 | 53.33475 | -2.86234 | 86 ft | 13 kts | 97° |
| 2026-04-26 20:24 | 53.33481 | -2.86069 | 85 ft | 16 kts | 85° |
| 2026-04-26 20:24 | 53.33489 | -2.85874 | 85 ft | 18 kts | 86° |
| 2026-04-26 20:24 | 53.33499 | -2.85649 | 88 ft | 21 kts | 86° |
| 2026-04-26 20:25 | 53.33510 | -2.85423 | 85 ft | 20 kts | 86° |
| 2026-04-26 20:25 | 53.33517 | -2.85263 | 86 ft | 22 kts | 85° |
| 2026-04-26 20:25 | 53.33532 | -2.84930 | 86 ft | 23 kts | 84° |
| 2026-04-26 20:25 | 53.33543 | -2.84680 | 85 ft | 21 kts | 85° |
| 2026-04-26 20:26 | 53.33556 | -2.84421 | 88 ft | 21 kts | 86° |
| 2026-04-26 20:26 | 53.33567 | -2.84177 | 87 ft | 22 kts | 83° |
| 2026-04-26 20:26 | 53.33577 | -2.83942 | 86 ft | 20 kts | 86° |
| 2026-04-26 20:26 | 53.33587 | -2.83701 | 85 ft | 22 kts | 86° |
| 2026-04-26 20:27 | 53.33597 | -2.83469 | 89 ft | 17 kts | 86° |
| 2026-04-26 20:27 | 53.33547 | -2.83309 | 86 ft | 10 kts | 163° |
| 2026-04-26 20:27 | 53.33544 | -2.83308 | 86 ft | 0 kts | 165° |
| 2026-04-26 20:28 | 53.33543 | -2.83308 | 86 ft | 1 kts | 166° |
| 2026-04-26 20:28 | 53.33519 | -2.83301 | 85 ft | 7 kts | 171° |
| 2026-04-26 20:28 | 53.33449 | -2.83318 | 87 ft | 13 kts | 225° |
| 2026-04-26 20:28 | 53.33433 | -2.83414 | 88 ft | 0 kts | 264° |
| 2026-04-26 20:29 | 53.33428 | -2.83517 | 87 ft | 36 kts | 265° |
| 2026-04-26 20:29 | 53.33387 | -2.84356 | 86 ft | 106 kts | 265° |
| 2026-04-26 20:29 | 53.33315 | -2.85889 | 125 ft | 153 kts | 266° |
| 2026-04-26 20:29 | 53.33224 | -2.87607 | 849 ft | 146 kts | 265° |
| 2026-04-26 20:30 | 53.33105 | -2.89319 | 1489 ft | 150 kts | 264° |
| 2026-04-26 20:30 | 53.32969 | -2.91061 | 2079 ft | 156 kts | 263° |
| 2026-04-26 20:30 | 53.32837 | -2.92970 | 2524 ft | 174 kts | 264° |
| 2026-04-26 20:30 | 53.32712 | -2.95094 | 3012 ft | 193 kts | 264° |
| 2026-04-26 20:31 | 53.32585 | -2.97462 | 3457 ft | 217 kts | 264° |
| 2026-04-26 20:31 | 53.32449 | -3.00103 | 3977 ft | 238 kts | 264° |
| 2026-04-26 20:31 | 53.32305 | -3.02982 | 4556 ft | 258 kts | 264° |
| 2026-04-26 20:31 | 53.32153 | -3.06011 | 5412 ft | 264 kts | 264° |
| 2026-04-26 20:32 | 53.31999 | -3.09092 | 6005 ft | 266 kts | 264° |
| 2026-04-26 20:32 | 53.31576 | -3.12036 | 6205 ft | 267 kts | 243° |
| 2026-04-26 20:32 | 53.30394 | -3.14403 | 6288 ft | 268 kts | 216° |
| 2026-04-26 20:32 | 53.28688 | -3.15593 | 6291 ft | 270 kts | 188° |
| 2026-04-26 20:33 | 53.26802 | -3.15574 | 6401 ft | 274 kts | 175° |
| 2026-04-26 20:33 | 53.24900 | -3.15233 | 7011 ft | 276 kts | 175° |
| 2026-04-26 20:33 | 53.22989 | -3.15014 | 8015 ft | 275 kts | 179° |
| 2026-04-26 20:33 | 53.21065 | -3.14961 | 8895 ft | 280 kts | 181° |
| 2026-04-26 20:34 | 53.19082 | -3.15034 | 9796 ft | 284 kts | 183° |
| 2026-04-26 20:34 | 53.17113 | -3.15171 | 10607 ft | 290 kts | 183° |
| 2026-04-26 20:34 | 53.15019 | -3.15342 | 10955 ft | 313 kts | 184° |
| 2026-04-26 20:34 | 53.12769 | -3.15531 | 11256 ft | 334 kts | 184° |
| 2026-04-26 20:35 | 53.10418 | -3.15725 | 11935 ft | 340 kts | 183° |
| 2026-04-26 20:35 | 53.08042 | -3.15746 | 12734 ft | 345 kts | 175° |
| 2026-04-26 20:35 | 53.07001 | -3.15496 | 13065 ft | 347 kts | 169° |
| 2026-04-26 20:35 | 53.04700 | -3.14253 | 13851 ft | 352 kts | 155° |
| 2026-04-26 20:36 | 53.02535 | -3.12310 | 14559 ft | 356 kts | 151° |
| 2026-04-26 20:36 | 53.00356 | -3.10296 | 15197 ft | 361 kts | 151° |
| 2026-04-26 20:36 | 52.98151 | -3.08272 | 15880 ft | 364 kts | 152° |
| 2026-04-26 20:36 | 52.95917 | -3.06231 | 16543 ft | 369 kts | 152° |
| 2026-04-26 20:37 | 52.93654 | -3.04172 | 17200 ft | 373 kts | 152° |
| 2026-04-26 20:37 | 52.91365 | -3.02095 | 17844 ft | 377 kts | 153° |
| 2026-04-26 20:37 | 52.89054 | -3.00001 | 18496 ft | 381 kts | 153° |
| 2026-04-26 20:37 | 52.86710 | -2.97880 | 18997 ft | 385 kts | 153° |
| 2026-04-26 20:38 | 52.84352 | -2.95748 | 19212 ft | 386 kts | 153° |
| 2026-04-26 20:38 | 52.81954 | -2.93772 | 19287 ft | 384 kts | 162° |
| 2026-04-26 20:38 | 52.79380 | -2.92727 | 19290 ft | 380 kts | 176° |
| 2026-04-26 20:38 | 52.76762 | -2.92764 | 19291 ft | 375 kts | 190° |
| 2026-04-26 20:39 | 52.74212 | -2.93379 | 19291 ft | 375 kts | 190° |
| 2026-04-26 20:39 | 52.72464 | -2.93799 | 19289 ft | 375 kts | 190° |
| 2026-04-26 20:39 | 52.69021 | -2.94303 | 19290 ft | 376 kts | 185° |
| 2026-04-26 20:39 | 52.66410 | -2.94512 | 19289 ft | 376 kts | 185° |
| 2026-04-26 20:40 | 52.63800 | -2.94722 | 19288 ft | 375 kts | 185° |
| 2026-04-26 20:40 | 52.61199 | -2.94935 | 19287 ft | 375 kts | 185° |
| 2026-04-26 20:40 | 52.58588 | -2.95151 | 19287 ft | 375 kts | 185° |
| 2026-04-26 20:40 | 52.55982 | -2.95367 | 19286 ft | 375 kts | 185° |
| 2026-04-26 20:41 | 52.53379 | -2.95583 | 19285 ft | 375 kts | 185° |
| 2026-04-26 20:41 | 52.50770 | -2.95800 | 19285 ft | 375 kts | 185° |
| 2026-04-26 20:41 | 52.48167 | -2.96015 | 19283 ft | 375 kts | 185° |
| 2026-04-26 20:41 | 52.45565 | -2.96230 | 19282 ft | 375 kts | 185° |
| 2026-04-26 20:42 | 52.42960 | -2.96444 | 19285 ft | 375 kts | 185° |
| 2026-04-26 20:42 | 52.40359 | -2.96659 | 19286 ft | 374 kts | 185° |
| 2026-04-26 20:42 | 52.37758 | -2.96872 | 19289 ft | 374 kts | 185° |
| 2026-04-26 20:42 | 52.35159 | -2.97085 | 19288 ft | 374 kts | 185° |
| 2026-04-26 20:43 | 52.32559 | -2.97298 | 19287 ft | 374 kts | 185° |
| 2026-04-26 20:43 | 52.29959 | -2.97511 | 19286 ft | 374 kts | 185° |
| 2026-04-26 20:43 | 52.28240 | -2.97652 | 19285 ft | 374 kts | 185° |
| 2026-04-26 20:43 | 52.25609 | -2.97867 | 19282 ft | 374 kts | 185° |
| 2026-04-26 20:44 | 52.23047 | -2.98077 | 19286 ft | 373 kts | 185° |
| 2026-04-26 20:44 | 52.20449 | -2.98289 | 19282 ft | 374 kts | 185° |
| 2026-04-26 20:44 | 52.17852 | -2.98500 | 19287 ft | 373 kts | 185° |
| 2026-04-26 20:44 | 52.15259 | -2.98711 | 19285 ft | 373 kts | 185° |
| 2026-04-26 20:45 | 52.12663 | -2.98922 | 19286 ft | 373 kts | 185° |
| 2026-04-26 20:45 | 52.10073 | -2.99132 | 19284 ft | 373 kts | 185° |
| 2026-04-26 20:45 | 52.07480 | -2.99342 | 19283 ft | 373 kts | 185° |
| 2026-04-26 20:45 | 52.04890 | -2.99551 | 19284 ft | 373 kts | 185° |
| 2026-04-26 20:46 | 52.02297 | -2.99760 | 19283 ft | 373 kts | 185° |
| 2026-04-26 20:46 | 51.99708 | -2.99969 | 19285 ft | 372 kts | 185° |
| 2026-04-26 20:46 | 51.97120 | -3.00178 | 19286 ft | 372 kts | 185° |
| 2026-04-26 20:46 | 51.94531 | -3.00386 | 19287 ft | 373 kts | 185° |
| 2026-04-26 20:47 | 51.91942 | -3.00594 | 19288 ft | 372 kts | 185° |
| 2026-04-26 20:47 | 51.90230 | -3.00732 | 19289 ft | 372 kts | 185° |
| 2026-04-26 20:47 | 51.86788 | -3.01147 | 19291 ft | 371 kts | 189° |
| 2026-04-26 20:47 | 51.84226 | -3.01693 | 19295 ft | 371 kts | 189° |
| 2026-04-26 20:48 | 51.81665 | -3.02235 | 19291 ft | 370 kts | 189° |
| 2026-04-26 20:48 | 51.79107 | -3.02774 | 19295 ft | 371 kts | 189° |
| 2026-04-26 20:48 | 51.76553 | -3.03309 | 19294 ft | 370 kts | 189° |
| 2026-04-26 20:48 | 51.74000 | -3.03842 | 19294 ft | 371 kts | 189° |
| 2026-04-26 20:49 | 51.71441 | -3.04375 | 19291 ft | 370 kts | 189° |
| 2026-04-26 20:49 | 51.68921 | -3.04899 | 19294 ft | 370 kts | 189° |
| 2026-04-26 20:49 | 51.66371 | -3.05429 | 19291 ft | 370 kts | 189° |
| 2026-04-26 20:49 | 51.63816 | -3.05960 | 19290 ft | 370 kts | 189° |
| 2026-04-26 20:50 | 51.61260 | -3.06490 | 19290 ft | 370 kts | 189° |
| 2026-04-26 20:50 | 51.58708 | -3.07020 | 19289 ft | 370 kts | 189° |
| 2026-04-26 20:50 | 51.56159 | -3.07547 | 19291 ft | 369 kts | 189° |
| 2026-04-26 20:50 | 51.53612 | -3.08073 | 19290 ft | 369 kts | 189° |
| 2026-04-26 20:51 | 51.51059 | -3.08600 | 19288 ft | 369 kts | 189° |
| 2026-04-26 20:51 | 51.48507 | -3.09127 | 19292 ft | 370 kts | 189° |
| 2026-04-26 20:51 | 51.45955 | -3.09653 | 19290 ft | 370 kts | 189° |
| 2026-04-26 20:51 | 51.43405 | -3.10178 | 19285 ft | 369 kts | 189° |
| 2026-04-26 20:52 | 51.40862 | -3.10702 | 19286 ft | 369 kts | 189° |
| 2026-04-26 20:52 | 51.38364 | -3.11626 | 19290 ft | 368 kts | 200° |
| 2026-04-26 20:52 | 51.36049 | -3.13320 | 19292 ft | 366 kts | 211° |
| 2026-04-26 20:52 | 51.33976 | -3.15695 | 19287 ft | 366 kts | 219° |
| 2026-04-26 20:53 | 51.31991 | -3.18229 | 19290 ft | 366 kts | 219° |
| 2026-04-26 20:53 | 51.29996 | -3.20755 | 19284 ft | 366 kts | 219° |
| 2026-04-26 20:53 | 51.28000 | -3.23270 | 19292 ft | 366 kts | 218° |
| 2026-04-26 20:53 | 51.25997 | -3.25785 | 19284 ft | 366 kts | 218° |
| 2026-04-26 20:54 | 51.23992 | -3.28298 | 19289 ft | 366 kts | 219° |
| 2026-04-26 20:54 | 51.21988 | -3.30808 | 19293 ft | 366 kts | 218° |
| 2026-04-26 20:54 | 51.19983 | -3.33318 | 19286 ft | 366 kts | 219° |
| 2026-04-26 20:54 | 51.18017 | -3.35892 | 19289 ft | 366 kts | 225° |
| 2026-04-26 20:55 | 51.16361 | -3.38979 | 19284 ft | 366 kts | 233° |
| 2026-04-26 20:55 | 51.14905 | -3.42296 | 19287 ft | 366 kts | 236° |
| 2026-04-26 20:55 | 51.13497 | -3.45682 | 19287 ft | 366 kts | 236° |
| 2026-04-26 20:55 | 51.12085 | -3.49054 | 19288 ft | 366 kts | 236° |
| 2026-04-26 20:56 | 51.10672 | -3.52366 | 19286 ft | 366 kts | 236° |
| 2026-04-26 20:56 | 51.09226 | -3.55702 | 19288 ft | 366 kts | 235° |
| 2026-04-26 20:56 | 51.07772 | -3.59026 | 19286 ft | 366 kts | 235° |
| 2026-04-26 20:56 | 51.06312 | -3.62346 | 19288 ft | 366 kts | 235° |
| 2026-04-26 20:57 | 51.04851 | -3.65662 | 19288 ft | 366 kts | 235° |
| 2026-04-26 20:57 | 51.03394 | -3.68965 | 19286 ft | 365 kts | 235° |
| 2026-04-26 20:57 | 51.01932 | -3.72273 | 19287 ft | 365 kts | 235° |
| 2026-04-26 20:57 | 51.00472 | -3.75575 | 19284 ft | 366 kts | 235° |
| 2026-04-26 20:58 | 50.99008 | -3.78880 | 19285 ft | 366 kts | 235° |
| 2026-04-26 20:58 | 50.97542 | -3.82188 | 19283 ft | 366 kts | 235° |
| 2026-04-26 20:58 | 50.96072 | -3.85500 | 19185 ft | 367 kts | 235° |
| 2026-04-26 20:58 | 50.94601 | -3.88809 | 18943 ft | 366 kts | 235° |
| 2026-04-26 20:59 | 50.93135 | -3.92104 | 18717 ft | 365 kts | 235° |
| 2026-04-26 20:59 | 50.91672 | -3.95388 | 18251 ft | 366 kts | 235° |
| 2026-04-26 20:59 | 50.90205 | -3.98677 | 17709 ft | 364 kts | 235° |
| 2026-04-26 20:59 | 50.88751 | -4.01933 | 17162 ft | 360 kts | 235° |
| 2026-04-26 21:00 | 50.87310 | -4.05154 | 16655 ft | 357 kts | 235° |
| 2026-04-26 21:00 | 50.85883 | -4.08341 | 16118 ft | 353 kts | 235° |
| 2026-04-26 21:00 | 50.84465 | -4.11503 | 15598 ft | 350 kts | 235° |
| 2026-04-26 21:00 | 50.83060 | -4.14634 | 15072 ft | 348 kts | 235° |
| 2026-04-26 21:01 | 50.81683 | -4.17697 | 14572 ft | 345 kts | 235° |
| 2026-04-26 21:01 | 50.80276 | -4.20825 | 14012 ft | 344 kts | 235° |
| 2026-04-26 21:01 | 50.78895 | -4.23893 | 13366 ft | 343 kts | 235° |
| 2026-04-26 21:01 | 50.77495 | -4.26999 | 12389 ft | 352 kts | 234° |
| 2026-04-26 21:02 | 50.76086 | -4.30121 | 11730 ft | 348 kts | 234° |
| 2026-04-26 21:02 | 50.74713 | -4.33159 | 11319 ft | 333 kts | 234° |
| 2026-04-26 21:02 | 50.73390 | -4.36083 | 10844 ft | 321 kts | 234° |
| 2026-04-26 21:02 | 50.72119 | -4.38889 | 10548 ft | 306 kts | 234° |
| 2026-04-26 21:03 | 50.70918 | -4.41537 | 10315 ft | 289 kts | 234° |
| 2026-04-26 21:03 | 50.69758 | -4.44093 | 9812 ft | 284 kts | 234° |
| 2026-04-26 21:03 | 50.68629 | -4.46578 | 9417 ft | 275 kts | 234° |
| 2026-04-26 21:03 | 50.67517 | -4.49022 | 9043 ft | 273 kts | 234° |
| 2026-04-26 21:04 | 50.66417 | -4.51439 | 8787 ft | 269 kts | 234° |
| 2026-04-26 21:04 | 50.65312 | -4.53862 | 8654 ft | 274 kts | 234° |
| 2026-04-26 21:04 | 50.64204 | -4.56293 | 8535 ft | 272 kts | 234° |
| 2026-04-26 21:04 | 50.63100 | -4.58713 | 8397 ft | 272 kts | 234° |
| 2026-04-26 21:05 | 50.61995 | -4.61131 | 8101 ft | 271 kts | 234° |
| 2026-04-26 21:05 | 50.60895 | -4.63536 | 7793 ft | 269 kts | 234° |
| 2026-04-26 21:05 | 50.59803 | -4.65922 | 7372 ft | 270 kts | 234° |
| 2026-04-26 21:05 | 50.58697 | -4.68337 | 6959 ft | 270 kts | 234° |
| 2026-04-26 21:06 | 50.57600 | -4.70729 | 6584 ft | 269 kts | 234° |
| 2026-04-26 21:06 | 50.56506 | -4.73113 | 6217 ft | 267 kts | 234° |
| 2026-04-26 21:06 | 50.55425 | -4.75467 | 5945 ft | 263 kts | 234° |
| 2026-04-26 21:06 | 50.54359 | -4.77786 | 5597 ft | 261 kts | 234° |
| 2026-04-26 21:07 | 50.53296 | -4.80096 | 5224 ft | 261 kts | 234° |
| 2026-04-26 21:07 | 50.52232 | -4.82405 | 4861 ft | 260 kts | 234° |
| 2026-04-26 21:07 | 50.51168 | -4.84715 | 4390 ft | 264 kts | 234° |
| 2026-04-26 21:07 | 50.50108 | -4.87015 | 4020 ft | 263 kts | 233° |
| 2026-04-26 21:08 | 50.49026 | -4.89360 | 3833 ft | 262 kts | 233° |
| 2026-04-26 21:08 | 50.47978 | -4.91625 | 3790 ft | 249 kts | 233° |
| 2026-04-26 21:08 | 50.47004 | -4.93733 | 3792 ft | 233 kts | 233° |
| 2026-04-26 21:08 | 50.46086 | -4.95718 | 3788 ft | 216 kts | 233° |
| 2026-04-26 21:09 | 50.45131 | -4.97382 | 3810 ft | 195 kts | 212° |
| 2026-04-26 21:09 | 50.43943 | -4.97958 | 3793 ft | 166 kts | 179° |
| 2026-04-26 21:09 | 50.42935 | -4.97593 | 3786 ft | 140 kts | 151° |
| 2026-04-26 21:09 | 50.42160 | -4.96663 | 3788 ft | 141 kts | 135° |
| 2026-04-26 21:10 | 50.41447 | -4.95633 | 3731 ft | 137 kts | 136° |
| 2026-04-26 21:10 | 50.40742 | -4.94637 | 3475 ft | 136 kts | 136° |
| 2026-04-26 21:10 | 50.40035 | -4.93645 | 3111 ft | 137 kts | 136° |
| 2026-04-26 21:10 | 50.39326 | -4.92652 | 2762 ft | 136 kts | 136° |
| 2026-04-26 21:11 | 50.38625 | -4.91664 | 2523 ft | 136 kts | 136° |
| 2026-04-26 21:11 | 50.37923 | -4.90671 | 2499 ft | 137 kts | 136° |
| 2026-04-26 21:11 | 50.37216 | -4.89668 | 2501 ft | 137 kts | 136° |
| 2026-04-26 21:11 | 50.36509 | -4.88664 | 2496 ft | 138 kts | 135° |
| 2026-04-26 21:12 | 50.35803 | -4.87663 | 2500 ft | 138 kts | 135° |
| 2026-04-26 21:12 | 50.35097 | -4.86662 | 2500 ft | 137 kts | 135° |
| 2026-04-26 21:12 | 50.34392 | -4.85662 | 2496 ft | 136 kts | 135° |
| 2026-04-26 21:12 | 50.33685 | -4.84660 | 2494 ft | 136 kts | 135° |
| 2026-04-26 21:13 | 50.32981 | -4.83663 | 2495 ft | 137 kts | 135° |
| 2026-04-26 21:13 | 50.32279 | -4.82669 | 2497 ft | 136 kts | 135° |
| 2026-04-26 21:13 | 50.31577 | -4.81674 | 2493 ft | 136 kts | 133° |
| 2026-04-26 21:13 | 50.31242 | -4.80383 | 2503 ft | 135 kts | 84° |
| 2026-04-26 21:14 | 50.31737 | -4.79170 | 2494 ft | 136 kts | 31° |
| 2026-04-26 21:14 | 50.32669 | -4.78967 | 2494 ft | 141 kts | 356° |
| 2026-04-26 21:14 | 50.33630 | -4.79250 | 2489 ft | 141 kts | 349° |
| 2026-04-26 21:14 | 50.34577 | -4.79635 | 2495 ft | 140 kts | 347° |
| 2026-04-26 21:15 | 50.35518 | -4.80063 | 2497 ft | 141 kts | 342° |
| 2026-04-26 21:15 | 50.36404 | -4.80740 | 2495 ft | 143 kts | 328° |
| 2026-04-26 21:15 | 50.37164 | -4.81749 | 2494 ft | 144 kts | 314° |
| 2026-04-26 21:15 | 50.37787 | -4.82979 | 2494 ft | 144 kts | 305° |
| 2026-04-26 21:16 | 50.38326 | -4.84307 | 2475 ft | 146 kts | 302° |
| 2026-04-26 21:16 | 50.38846 | -4.85665 | 2285 ft | 143 kts | 302° |
| 2026-04-26 21:16 | 50.39350 | -4.87003 | 2104 ft | 142 kts | 301° |
| 2026-04-26 21:16 | 50.39855 | -4.88338 | 1902 ft | 142 kts | 301° |
| 2026-04-26 21:17 | 50.40355 | -4.89664 | 1717 ft | 140 kts | 302° |
| 2026-04-26 21:17 | 50.40849 | -4.90977 | 1512 ft | 139 kts | 302° |
| 2026-04-26 21:17 | 50.41341 | -4.92282 | 1326 ft | 139 kts | 302° |
| 2026-04-26 21:17 | 50.41831 | -4.93578 | 1118 ft | 137 kts | 302° |
| 2026-04-26 21:18 | 50.42311 | -4.94852 | 940 ft | 135 kts | 303° |
| 2026-04-26 21:18 | 50.42788 | -4.96127 | 749 ft | 136 kts | 302° |
| 2026-04-26 21:18 | 50.43261 | -4.97393 | 573 ft | 135 kts | 301° |
| 2026-04-26 21:18 | 50.43748 | -4.98665 | 388 ft | 132 kts | 303° |
| 2026-04-26 21:19 | 50.44169 | -4.99762 | 355 ft | 85 kts | 301° |
| 2026-04-26 21:19 | 50.44330 | -5.00200 | 350 ft | 9 kts | 299° |
| 2026-04-26 21:19 | 50.44403 | -5.00267 | 337 ft | 15 kts | 38° |
| 2026-04-26 21:19 | 50.44444 | -5.00144 | 340 ft | 13 kts | 62° |
| 2026-04-26 21:20 | 50.44506 | -5.00108 | 337 ft | 10 kts | 298° |
| 2026-04-26 21:20 | 50.44542 | -5.00234 | 335 ft | 15 kts | 300° |
| 2026-04-26 21:20 | 50.44605 | -5.00401 | 332 ft | 19 kts | 300° |
| 2026-04-26 21:20 | 50.44658 | -5.00513 | 328 ft | 9 kts | 348° |
| 2026-04-26 21:21 | 50.44678 | -5.00480 | 327 ft | 3 kts | 105° |
| 2026-04-26 21:21 | 50.44671 | -5.00461 | 331 ft | 0 kts | 124° |